Koenig, Missouri
Current Conditions -  °F | °C
As of 12:53 AM on Friday 28 Nov 2014 (Local Time) from KVIH Reporting Station
NA  
Wind Chill: 20°   Ceiling: NA
Heat Index: 29°   Visibility: 10mi
Dew Point: 21°   Wind: 10mph
Humidity: 72%   Direction: 140°SE
Pressure: 30.29"   Gusts: NA
Location:  38.2601°N, 91.7526°W
Report Text: KVIH 280653Z AUTO 14009KT 10SM M02/M06 A3029 RMK AO2 SLP270 T10171061 $
Loading
Personal Weather Stations






























Interactive Weather Map New forecast layout! Learn more

10-Day Weather Forecast

Advertisements
Track Severe Weather on mobile